Neelyton, PA (17239)

12:31 AM EST on February 10, 2016 (GMT -0500)
Three Springs, PA | | Change Station
CLOSE
Current Station
Personal Weather Station
Location: Three Springs, PA
Elevation: 807 ft
Nearby Weather Stations

Elev 807 ft 40.21 °N, 77.96 °W | Updated 16 seconds ago

Overcast
Overcast
28.6 °F
Feels Like 29 °F
N
0.2
Wind Variable Wind from WNW
Gusts 2.5 mph

Today
High -- | Low -- °F
--% Chance of Precip.
Yesterday
High -- | Low -- °F
Precip. -- in
Pressure 29.68 in
Visibility 10.0 miles
Clouds Overcast 1600 ft
Windchill 29 °F
Dew Point 18 °F
Humidity 63%
Rainfall 0.00 in
Snow Depth Not available.
7:11 AM 5:40 PM
Waxing Crescent, 4% visible
METAR KAOO 100453Z AUTO 27009KT 10SM OVC016 M04/M07 A2963 RMK AO2 SLP049 T10391072 400061044
Pressure 29.68 in
Visibility 10.0 miles
Clouds Overcast 1600 ft
Windchill 29 °F
Dew Point 18 °F
Humidity 63%
Rainfall 0.00 in
Snow Depth Not available.
7:11 AM 5:40 PM
Waxing Crescent, 4% visible
METAR KAOO 100453Z AUTO 27009KT 10SM OVC016 M04/M07 A2963 RMK AO2 SLP049 T10391072 400061044
Winter Storm Nacio, the third winter storm in five days to affect the Northeast, is bringing pockets of locally heavy snow to parts of the Ohio Valley, Appalachians and mid-Atlantic states Tuesday. Winter storm warnings are posted for parts of southern Pennsylvania, southern Ohio and the higher peaks of the Appalachians. Winter weather advisories, generally for lighter snow accumulations, stretch from northeast Alabama and far north Georgia to southern Connecticut and Long Island.

10-Day Weather Forecast

Almanac

Astronomy

Feb. 10, 2016 Rise Set
Actual Time
Civil Twilight
Nautical Twilight
Astronomical Twilight
Moon
Length of Visible Light
Length of Day
Tomorrow will be .
, % of the Moon is Illuminated

Today's Extremes

State Highs State Lows

Community

WunderPhotos

Upload Photos

1,891,819 photos uploaded!

WunderBlog® & News

Nearby

Air Quality

  Air Quality AQ Index Pollutant
Not available.

Snow Depth

Station Depth Elevation

Earthquake Activity

City Distance Mag. Time & Date
Minimum magnitude displayed is 2.5.

Coastal Water Temperatures

Place Temperature

Stations

Nearby Weather Stations

Station Location Temp. Windchill Dew Point Humidity Wind Precip. Elev Updated Type
                   

Watches & Warnings

There are currently no watches in effect.